Terminal Aerodrome Forecast
Issued by NWS

Home | Current Version | Previous Version | Graphics & Text | Print | Product List | Glossary Off
Versions: 1 2 3 4 5 6 7 8 9 10 11 12 13

019
FTUS43 KGRB 141720
TAFAUW
TAF
KAUW 141720Z 1418/1518 15014G21KT P6SM SCT015 BKN050
      TEMPO 1418/1420 4SM -SN BKN015
     FM142000 14012G18KT 3SM -SN OVC015
     FM150000 14008KT 2SM -SN OVC012
     FM150700 15004KT 5SM -SN BKN015 OVC025
     FM151000 16003KT P6SM -SN BKN015 OVC025
     FM151500 20005KT P6SM OVC025=

USA.gov is the U.S. government's official web portal to all federal, state and local government web resources and services.